Dumas, Moore County Airport (KDUX)

NameMoore County Airport
CityDumas
CountryUnited States
ICAOKDUX
IATA
Altitude1129 m
CoordinatesGoogle Map
Live Air TrafficLiveATC.net
METARKDUX 211155Z AUTO 29005KT 10SM CLR 00/M11 A2995 RMK AO2 T10011111 10038 21007
2019-10-21 11:55:00 Wind: West (290°) 2.57 m/s - Visibility: 16093.4 m - Temperature: 0 °C - Dew point: -11 °C - Humidity: 43.7% - Pressure: 1014.22 hPa

Sorry, no flights used the airport in this database.